createdAt,value
2022-08-03T00:00:26.666Z,21.80
2022-08-03T00:02:53.687Z,21.70
2022-08-03T00:05:20.645Z,21.80
2022-08-03T00:07:49.380Z,21.70
2022-08-03T00:10:16.423Z,21.90
2022-08-03T00:12:43.154Z,21.60
2022-08-03T00:15:11.364Z,21.60
2022-08-03T00:17:52.902Z,21.60
2022-08-03T00:20:23.893Z,21.60
2022-08-03T00:22:50.675Z,21.70
2022-08-03T00:25:17.622Z,21.60
2022-08-03T00:27:44.358Z,21.60
2022-08-03T00:30:11.175Z,21.60
2022-08-03T00:32:38.869Z,21.60
2022-08-03T00:35:27.414Z,21.60
2022-08-03T00:37:58.810Z,21.90
2022-08-03T00:40:25.643Z,21.30
2022-08-03T00:42:53.850Z,21.80
2022-08-03T00:45:21.413Z,21.90
2022-08-03T00:47:48.160Z,21.70
2022-08-03T00:50:15.054Z,21.90
2022-08-03T00:52:41.801Z,21.60
2022-08-03T00:55:09.003Z,22.40
2022-08-03T00:57:35.786Z,22.40
2022-08-03T01:00:02.654Z,22.30
2022-08-03T01:02:29.403Z,22.50
2022-08-03T01:04:56.287Z,22.30
2022-08-03T01:07:23.024Z,22.10
2022-08-03T01:09:55.911Z,22.10
2022-08-03T01:12:25.268Z,22.10
2022-08-03T01:14:54.515Z,21.90
2022-08-03T01:17:53.777Z,21.90
2022-08-03T01:20:20.935Z,21.90
2022-08-03T01:23:06.746Z,21.70
2022-08-03T01:25:54.555Z,21.60
2022-08-03T01:28:24.291Z,21.60
2022-08-03T01:30:51.033Z,21.50
2022-08-03T01:33:18.985Z,21.50
2022-08-03T01:35:47.188Z,21.60
2022-08-03T01:38:15.502Z,21.70
2022-08-03T01:40:42.780Z,21.90
2022-08-03T01:43:09.910Z,22.10
2022-08-03T01:45:36.675Z,22.30
2022-08-03T01:48:03.470Z,22.50
2022-08-03T01:50:30.909Z,22.30
2022-08-03T01:52:57.966Z,22.30
2022-08-03T01:55:25.200Z,22.70
2022-08-03T01:58:04.665Z,22.50
2022-08-03T02:00:33.152Z,22.50
2022-08-03T02:02:59.884Z,22.30
2022-08-03T02:05:26.679Z,22.10
2022-08-03T02:07:53.414Z,21.90
2022-08-03T02:10:34.884Z,21.90
2022-08-03T02:13:02.974Z,21.80
2022-08-03T02:15:30.063Z,21.90
2022-08-03T02:17:56.798Z,21.70
2022-08-03T02:20:23.546Z,21.60
2022-08-03T02:22:50.295Z,21.90
2022-08-03T02:25:17.035Z,21.70
2022-08-03T02:27:46.559Z,21.70
2022-08-03T02:30:14.412Z,21.40
2022-08-03T02:32:41.640Z,22.00
2022-08-03T02:35:10.289Z,21.80
2022-08-03T02:37:41.135Z,22.20
2022-08-03T02:40:10.031Z,22.00
2022-08-03T02:42:36.779Z,22.20
2022-08-03T02:45:05.202Z,22.20
2022-08-03T02:47:53.302Z,22.30
2022-08-03T02:50:18.754Z,22.30
2022-08-03T02:52:45.556Z,22.80
2022-08-03T02:55:12.370Z,22.80
2022-08-03T02:57:39.107Z,22.40
2022-08-03T03:00:06.160Z,22.50
2022-08-03T03:02:32.920Z,22.20
2022-08-03T03:05:52.213Z,23.80
2022-08-03T03:07:52.291Z,21.80
2022-08-03T03:10:23.140Z,21.70
2022-08-03T03:12:53.375Z,21.90
2022-08-03T03:15:20.298Z,21.60
2022-08-03T03:17:47.718Z,21.60
2022-08-03T03:20:14.889Z,21.70
2022-08-03T03:22:41.624Z,22.00
2022-08-03T03:25:12.033Z,22.30
2022-08-03T03:27:39.031Z,22.20
2022-08-03T03:30:05.997Z,22.50
2022-08-03T03:32:32.740Z,22.60
2022-08-03T03:34:59.497Z,22.30
2022-08-03T03:37:26.570Z,22.40
2022-08-03T03:39:53.724Z,22.40
2022-08-03T03:42:20.631Z,22.60
2022-08-03T03:44:47.364Z,22.40
2022-08-03T03:47:14.216Z,22.20
2022-08-03T03:49:43.662Z,22.10
2022-08-03T03:52:10.648Z,22.00
2022-08-03T03:54:43.707Z,21.80
2022-08-03T03:57:13.037Z,21.80
2022-08-03T03:59:40.731Z,21.70
2022-08-03T04:02:07.850Z,21.40
2022-08-03T04:04:53.329Z,21.70
2022-08-03T04:07:38.810Z,21.80
2022-08-03T04:10:24.786Z,20.60
2022-08-03T04:12:51.568Z,21.60
2022-08-03T04:15:21.559Z,22.10
2022-08-03T04:17:48.999Z,22.20
2022-08-03T04:20:15.801Z,22.00
2022-08-03T04:22:42.572Z,22.00
2022-08-03T04:25:09.522Z,22.10
2022-08-03T04:27:40.066Z,22.20
2022-08-03T04:30:07.964Z,22.30
2022-08-03T04:32:35.180Z,22.70
2022-08-03T04:35:01.935Z,22.60
2022-08-03T04:37:46.256Z,22.60
2022-08-03T04:40:18.999Z,22.50
2022-08-03T04:42:49.648Z,22.40
2022-08-03T04:45:16.424Z,22.20
2022-08-03T04:47:43.197Z,22.40
2022-08-03T04:50:13.005Z,21.90
2022-08-03T04:52:41.005Z,21.80
2022-08-03T04:55:07.926Z,21.80
2022-08-03T04:57:34.764Z,21.70
2022-08-03T05:00:03.388Z,21.50
2022-08-03T05:02:31.178Z,21.60
2022-08-03T05:04:58.111Z,21.50
2022-08-03T05:07:25.380Z,21.60
2022-08-03T05:09:57.651Z,21.80
2022-08-03T05:12:32.842Z,21.80
2022-08-03T05:15:00.201Z,22.20
2022-08-03T05:17:27.013Z,22.10
2022-08-03T05:19:54.017Z,22.20
2022-08-03T05:22:21.124Z,22.10
2022-08-03T05:24:47.878Z,22.40
2022-08-03T05:27:19.307Z,22.40
2022-08-03T05:29:46.306Z,22.40
2022-08-03T05:32:13.045Z,22.50
2022-08-03T05:34:39.825Z,22.70
2022-08-03T05:37:07.416Z,22.40
2022-08-03T05:39:34.743Z,22.50
2022-08-03T05:42:01.735Z,22.60
2022-08-03T05:44:28.695Z,22.50
2022-08-03T05:46:57.516Z,22.70
2022-08-03T05:49:24.303Z,22.70
2022-08-03T05:52:00.457Z,22.80
2022-08-03T05:54:55.334Z,22.80
2022-08-03T05:57:23.839Z,22.70
2022-08-03T05:59:59.575Z,22.70
2022-08-03T06:02:26.780Z,22.60
2022-08-03T06:04:53.625Z,22.70
2022-08-03T06:07:20.396Z,22.70
2022-08-03T06:10:37.650Z,22.60
2022-08-03T06:12:36.234Z,22.70
2022-08-03T06:15:04.452Z,22.70
2022-08-03T06:17:37.474Z,23.00
2022-08-03T06:20:05.580Z,22.80
2022-08-03T06:22:32.334Z,22.80
2022-08-03T06:25:03.435Z,22.80
2022-08-03T06:27:37.331Z,23.00
2022-08-03T06:30:04.623Z,22.80
2022-08-03T06:32:31.374Z,22.80
2022-08-03T06:34:58.112Z,22.80
2022-08-03T06:37:24.846Z,22.80
2022-08-03T06:39:51.566Z,22.80
2022-08-03T06:42:18.633Z,22.90
2022-08-03T06:44:47.436Z,23.20
2022-08-03T06:47:14.184Z,22.80
2022-08-03T06:49:41.703Z,23.20
2022-08-03T06:52:09.588Z,22.90
2022-08-03T06:54:36.465Z,22.90
2022-08-03T06:57:03.773Z,23.10
2022-08-03T07:00:08.893Z,23.00
2022-08-03T07:02:19.358Z,22.90
2022-08-03T07:04:47.398Z,22.90
2022-08-03T07:07:14.152Z,23.00
2022-08-03T07:09:41.798Z,23.20
2022-08-03T07:12:08.659Z,23.10
2022-08-03T07:14:35.410Z,23.00
2022-08-03T07:17:04.641Z,23.00
2022-08-03T07:19:38.689Z,23.00
2022-08-03T07:22:05.458Z,23.20
2022-08-03T07:24:32.221Z,23.20
2022-08-03T07:26:58.943Z,23.00
2022-08-03T07:29:25.680Z,23.30
2022-08-03T07:31:52.396Z,22.90
2022-08-03T07:34:19.242Z,23.00
2022-08-03T07:36:45.974Z,23.00
2022-08-03T07:39:15.930Z,23.10
2022-08-03T07:41:44.832Z,23.00
2022-08-03T07:44:11.623Z,23.00
2022-08-03T07:46:38.380Z,23.00
2022-08-03T07:49:05.457Z,23.10
2022-08-03T07:51:32.231Z,23.00
2022-08-03T07:54:00.874Z,23.30
2022-08-03T07:56:28.263Z,23.00
2022-08-03T07:58:55.125Z,23.20
2022-08-03T08:01:22.430Z,23.10
2022-08-03T08:03:53.501Z,23.20
2022-08-03T08:06:20.899Z,23.40
2022-08-03T08:08:47.757Z,23.40
2022-08-03T08:11:14.893Z,23.40
2022-08-03T08:13:41.618Z,23.10
2022-08-03T08:16:08.450Z,23.10
2022-08-03T08:18:35.186Z,23.30
2022-08-03T08:21:03.347Z,23.10
2022-08-03T08:23:42.242Z,23.10
2022-08-03T08:26:11.000Z,23.40
2022-08-03T08:28:38.749Z,23.10
2022-08-03T08:31:05.567Z,23.40
2022-08-03T08:34:03.767Z,23.20
2022-08-03T08:36:19.923Z,23.10
2022-08-03T08:38:46.700Z,23.20
2022-08-03T08:41:13.880Z,23.10
2022-08-03T08:43:40.755Z,23.40
2022-08-03T08:46:08.550Z,23.30
2022-08-03T08:48:36.083Z,23.20
2022-08-03T08:51:02.903Z,23.20
2022-08-03T08:53:30.316Z,23.40
2022-08-03T08:56:01.102Z,23.20
2022-08-03T08:58:35.134Z,23.20
2022-08-03T09:01:02.000Z,23.40
2022-08-03T09:03:29.877Z,23.30
2022-08-03T09:05:59.027Z,23.20
2022-08-03T09:08:25.887Z,23.20
2022-08-03T09:10:52.623Z,23.20
2022-08-03T09:13:19.422Z,23.40
2022-08-03T09:16:01.033Z,23.20
2022-08-03T09:18:32.716Z,23.40
2022-08-03T09:21:31.179Z,23.40
2022-08-03T09:24:03.661Z,23.50
2022-08-03T09:26:32.060Z,23.20
2022-08-03T09:29:05.959Z,23.20
2022-08-03T09:31:45.043Z,23.20
2022-08-03T09:34:15.624Z,23.50
2022-08-03T09:36:46.622Z,23.20
2022-08-03T09:39:28.630Z,23.30
2022-08-03T09:42:08.403Z,23.20
2022-08-03T09:44:36.354Z,23.30
2022-08-03T09:47:03.136Z,23.20
2022-08-03T09:49:29.942Z,23.50
2022-08-03T09:52:31.526Z,23.30
2022-08-03T09:54:43.544Z,23.20
2022-08-03T09:57:23.042Z,23.20
2022-08-03T09:59:50.233Z,23.20
2022-08-03T10:02:20.839Z,23.30
2022-08-03T10:04:48.388Z,23.20
2022-08-03T10:07:15.168Z,23.30
2022-08-03T10:09:53.060Z,23.50
2022-08-03T10:12:19.817Z,23.20
2022-08-03T10:14:46.787Z,23.40
2022-08-03T10:17:13.690Z,23.50
2022-08-03T10:19:41.390Z,23.30
2022-08-03T10:22:10.675Z,23.50
2022-08-03T10:24:37.462Z,23.30
2022-08-03T10:27:08.034Z,23.30
2022-08-03T10:29:37.417Z,23.30
2022-08-03T10:32:04.513Z,23.20
2022-08-03T10:34:34.097Z,23.40
2022-08-03T10:37:00.831Z,23.30
2022-08-03T10:39:30.811Z,23.40
2022-08-03T10:41:58.878Z,23.50
2022-08-03T10:44:33.488Z,23.50
2022-08-03T10:47:02.705Z,23.40
2022-08-03T10:49:34.557Z,23.40
2022-08-03T10:52:02.616Z,23.50
2022-08-03T10:54:58.176Z,23.30
2022-08-03T10:57:44.114Z,23.30
2022-08-03T11:00:16.349Z,23.50
2022-08-03T11:03:01.280Z,23.50
2022-08-03T11:05:28.561Z,23.30
2022-08-03T11:08:14.132Z,23.50
2022-08-03T11:10:40.904Z,23.40
2022-08-03T11:13:08.075Z,23.50
2022-08-03T11:15:34.890Z,23.40
2022-08-03T11:18:11.157Z,23.40
2022-08-03T11:20:59.981Z,23.40
2022-08-03T11:24:03.421Z,23.50
2022-08-03T11:26:28.986Z,23.50
2022-08-03T11:29:02.946Z,23.40
2022-08-03T11:31:49.254Z,23.40
2022-08-03T11:34:16.948Z,23.50
2022-08-03T11:37:02.236Z,23.50
2022-08-03T11:39:38.600Z,23.40
2022-08-03T11:42:40.732Z,23.70
2022-08-03T11:45:07.877Z,23.50
2022-08-03T11:47:36.439Z,23.50
2022-08-03T11:50:19.045Z,23.60
2022-08-03T11:52:45.820Z,23.50
2022-08-03T11:55:13.076Z,23.30
2022-08-03T11:59:10.981Z,23.50
2022-08-03T12:00:27.726Z,23.50
2022-08-03T12:02:55.575Z,23.60
2022-08-03T12:05:25.798Z,23.60
2022-08-03T12:08:03.642Z,23.50
2022-08-03T12:10:32.989Z,23.60
2022-08-03T12:13:00.281Z,23.40
2022-08-03T12:15:27.782Z,23.70
2022-08-03T12:17:57.718Z,23.50
2022-08-03T12:20:34.766Z,23.70
2022-08-03T12:23:05.514Z,23.50
2022-08-03T12:25:39.247Z,23.80
2022-08-03T12:28:30.378Z,23.50
2022-08-03T12:30:56.396Z,23.70
2022-08-03T12:33:24.163Z,23.60
2022-08-03T12:36:09.718Z,23.60
2022-08-03T12:38:37.207Z,23.60
2022-08-03T12:41:07.132Z,23.60
2022-08-03T12:43:36.664Z,23.70
2022-08-03T12:46:15.844Z,23.60
2022-08-03T12:48:58.201Z,23.60
2022-08-03T12:51:27.399Z,23.60
2022-08-03T12:53:54.556Z,23.80
2022-08-03T12:56:21.374Z,23.70
2022-08-03T12:58:48.220Z,23.70
2022-08-03T13:01:15.057Z,23.70
2022-08-03T13:03:50.491Z,23.80
2022-08-03T13:06:22.394Z,23.70
2022-08-03T13:08:49.402Z,23.80
2022-08-03T13:11:22.838Z,23.60
2022-08-03T13:14:09.702Z,23.70
2022-08-03T13:16:42.078Z,23.70
2022-08-03T13:19:15.482Z,23.80
2022-08-03T13:21:53.614Z,23.70
2022-08-03T13:24:30.421Z,24.00
2022-08-03T13:26:58.075Z,23.60
2022-08-03T13:29:24.797Z,23.70
2022-08-03T13:31:51.629Z,23.90
2022-08-03T13:34:23.042Z,23.70
2022-08-03T13:37:08.315Z,23.70
2022-08-03T13:39:57.914Z,23.90
2022-08-03T13:42:22.708Z,23.70
2022-08-03T13:44:49.439Z,23.80
2022-08-03T13:47:16.307Z,23.70
2022-08-03T13:50:00.417Z,23.80
2022-08-03T13:52:32.596Z,23.80
2022-08-03T13:55:00.232Z,23.80
2022-08-03T13:58:02.560Z,23.80
2022-08-03T14:00:17.208Z,24.00
2022-08-03T14:02:55.344Z,23.70
2022-08-03T14:05:25.289Z,23.90
2022-08-03T14:07:52.059Z,23.90
2022-08-03T14:10:23.561Z,24.00
2022-08-03T14:12:50.297Z,23.80
2022-08-03T14:15:17.033Z,23.90
2022-08-03T14:17:49.866Z,23.80
2022-08-03T14:20:36.645Z,23.80
2022-08-03T14:23:03.775Z,23.90
2022-08-03T14:25:44.220Z,23.80
2022-08-03T14:28:17.785Z,24.00
2022-08-03T14:30:44.576Z,23.80
2022-08-03T14:33:11.370Z,23.90
2022-08-03T14:35:38.160Z,24.00
2022-08-03T14:38:04.923Z,23.80
2022-08-03T14:40:31.732Z,23.80
2022-08-03T14:42:58.472Z,21.90
2022-08-03T14:45:25.261Z,23.80
2022-08-03T14:50:30.562Z,23.80
2022-08-03T14:50:44.236Z,23.80
2022-08-03T14:53:13.869Z,23.80
2022-08-03T14:55:49.370Z,23.80
2022-08-03T14:58:21.174Z,24.00
2022-08-03T15:00:48.611Z,23.90
2022-08-03T15:03:17.019Z,24.00
2022-08-03T15:05:44.045Z,24.00
2022-08-03T15:08:10.810Z,24.00
2022-08-03T15:10:40.485Z,23.90
2022-08-03T15:13:12.307Z,23.90
2022-08-03T15:15:39.188Z,24.00
2022-08-03T15:18:05.936Z,23.80
2022-08-03T15:20:43.731Z,23.90
2022-08-03T15:23:10.956Z,23.90
2022-08-03T15:26:28.199Z,24.10
2022-08-03T15:28:27.250Z,24.00
2022-08-03T15:30:54.033Z,23.90
2022-08-03T15:33:20.802Z,24.00
2022-08-03T15:35:47.830Z,23.90
2022-08-03T15:38:14.735Z,23.80
2022-08-03T15:40:41.665Z,23.90
2022-08-03T15:43:08.415Z,24.20
2022-08-03T15:45:36.707Z,24.00
2022-08-03T15:48:06.483Z,24.00
2022-08-03T15:50:33.237Z,23.90
2022-08-03T15:52:59.992Z,23.70
2022-08-03T15:55:27.271Z,24.10
2022-08-03T15:59:04.204Z,23.90
2022-08-03T16:00:40.909Z,23.80
2022-08-03T16:03:07.751Z,23.90
2022-08-03T16:05:34.474Z,24.10
2022-08-03T16:08:03.537Z,24.00
2022-08-03T16:10:37.362Z,24.20
2022-08-03T16:13:04.098Z,24.20
2022-08-03T16:15:30.862Z,24.00
2022-08-03T16:17:57.612Z,23.90
2022-08-03T16:20:31.275Z,23.90
2022-08-03T16:23:10.796Z,23.90
2022-08-03T16:25:38.198Z,24.00
2022-08-03T16:28:08.227Z,24.00
2022-08-03T16:30:40.025Z,24.00
2022-08-03T16:33:06.755Z,24.00
2022-08-03T16:35:33.581Z,24.10
2022-08-03T16:38:00.362Z,24.00
2022-08-03T16:40:27.194Z,24.10
2022-08-03T16:42:53.971Z,24.00
2022-08-03T16:45:20.752Z,24.00
2022-08-03T16:47:47.528Z,24.00
2022-08-03T16:50:28.076Z,24.00
2022-08-03T16:52:55.063Z,24.00
2022-08-03T16:55:51.629Z,24.10
2022-08-03T16:58:08.669Z,24.00
2022-08-03T17:00:41.493Z,24.10
2022-08-03T17:03:18.694Z,24.00
2022-08-03T17:05:48.220Z,24.00
2022-08-03T17:08:18.974Z,24.10
2022-08-03T17:10:53.155Z,24.10
2022-08-03T17:13:21.827Z,24.20
2022-08-03T17:16:00.766Z,24.00
2022-08-03T17:18:33.323Z,24.00
2022-08-03T17:21:00.086Z,24.10
2022-08-03T17:23:35.788Z,24.20
2022-08-03T17:26:04.587Z,24.00
2022-08-03T17:28:49.199Z,24.10
2022-08-03T17:31:22.891Z,24.20
2022-08-03T17:33:57.937Z,24.30
2022-08-03T17:36:41.933Z,24.10
2022-08-03T17:39:14.215Z,24.20
2022-08-03T17:41:50.028Z,24.00
2022-08-03T17:44:33.140Z,24.30
2022-08-03T17:47:04.586Z,24.10
2022-08-03T17:49:39.976Z,24.30
2022-08-03T17:52:27.710Z,24.40
2022-08-03T17:55:56.102Z,24.30
2022-08-03T17:58:02.459Z,24.10
2022-08-03T18:00:52.154Z,24.10
2022-08-03T18:03:22.056Z,24.10
2022-08-03T18:06:11.717Z,24.20
2022-08-03T18:08:43.614Z,24.10
2022-08-03T18:11:15.079Z,24.30
2022-08-03T18:13:53.295Z,24.10
2022-08-03T18:16:24.988Z,24.10
2022-08-03T18:18:54.820Z,24.10
2022-08-03T18:21:21.911Z,24.10
2022-08-03T18:23:50.156Z,24.10
2022-08-03T18:26:17.858Z,24.40
2022-08-03T18:28:44.644Z,24.40
2022-08-03T18:31:12.700Z,24.10
2022-08-03T18:34:18.419Z,24.10
2022-08-03T18:36:46.592Z,24.10
2022-08-03T18:39:15.004Z,24.40
2022-08-03T18:41:46.359Z,24.20
2022-08-03T18:44:37.470Z,24.10
2022-08-03T18:47:07.303Z,24.10
2022-08-03T18:49:49.670Z,24.30
2022-08-03T18:52:17.715Z,24.30
2022-08-03T18:55:02.760Z,24.10
2022-08-03T18:57:42.262Z,24.40
2022-08-03T19:00:14.184Z,24.10
2022-08-03T19:02:42.069Z,24.30
2022-08-03T19:05:19.667Z,24.20
2022-08-03T19:08:08.340Z,24.40
2022-08-03T19:10:40.505Z,24.30
2022-08-03T19:13:36.166Z,24.50
2022-08-03T19:16:03.400Z,24.20
2022-08-03T19:18:30.136Z,24.20
2022-08-03T19:20:57.287Z,24.10
2022-08-03T19:23:25.093Z,24.10
2022-08-03T19:25:52.308Z,24.30
2022-08-03T19:28:20.562Z,24.20
2022-08-03T19:30:56.879Z,24.40
2022-08-03T19:33:25.750Z,24.40
2022-08-03T19:35:57.135Z,24.20
2022-08-03T19:38:28.532Z,24.20
2022-08-03T19:41:01.168Z,24.30
2022-08-03T19:43:53.986Z,24.20
2022-08-03T19:46:30.108Z,24.20
2022-08-03T19:49:01.123Z,24.40
2022-08-03T19:52:01.797Z,24.50
2022-08-03T19:54:25.296Z,24.20
2022-08-03T19:56:56.784Z,24.20
2022-08-03T19:59:23.782Z,24.20
2022-08-03T20:01:53.151Z,24.20
2022-08-03T20:04:21.510Z,24.30
2022-08-03T20:06:49.607Z,24.30
2022-08-03T20:09:16.498Z,24.20
2022-08-03T20:11:43.856Z,24.30
2022-08-03T20:14:12.068Z,24.30
2022-08-03T20:16:47.757Z,24.40
2022-08-03T20:19:16.809Z,24.40
2022-08-03T20:21:47.032Z,24.40
2022-08-03T20:24:23.784Z,24.30
2022-08-03T20:26:54.776Z,24.50
2022-08-03T20:30:05.147Z,24.20
2022-08-03T20:32:17.849Z,24.30
2022-08-03T20:34:44.713Z,24.30
2022-08-03T20:37:16.282Z,24.30
2022-08-03T20:39:48.262Z,24.50
2022-08-03T20:42:21.174Z,24.60
2022-08-03T20:45:04.365Z,24.30
2022-08-03T20:47:34.298Z,24.30
2022-08-03T20:50:03.091Z,24.40
2022-08-03T20:52:31.301Z,24.50
2022-08-03T20:54:58.045Z,24.50
2022-08-03T20:57:24.879Z,24.20
2022-08-03T20:59:53.245Z,24.10
2022-08-03T21:02:29.003Z,24.10
2022-08-03T21:04:58.481Z,24.10
2022-08-03T21:07:25.303Z,23.60
2022-08-03T21:10:12.785Z,23.50
2022-08-03T21:13:14.320Z,23.60
2022-08-03T21:16:11.593Z,23.50
2022-08-03T21:18:29.226Z,23.40
2022-08-03T21:20:56.011Z,23.30
2022-08-03T21:23:40.219Z,23.50
2022-08-03T21:26:09.887Z,23.70
2022-08-03T21:28:36.634Z,23.70
2022-08-03T21:31:03.393Z,23.80
2022-08-03T21:33:30.827Z,24.00
2022-08-03T21:36:01.907Z,23.90
2022-08-03T21:38:30.494Z,23.90
2022-08-03T21:40:57.395Z,23.90
2022-08-03T21:43:24.147Z,24.00
2022-08-03T21:45:54.867Z,24.00
2022-08-03T21:48:21.700Z,24.00
2022-08-03T21:50:48.831Z,24.20
2022-08-03T21:53:15.629Z,24.20
2022-08-03T21:55:43.695Z,24.10
2022-08-03T21:58:10.439Z,24.30
2022-08-03T22:00:37.203Z,24.20
2022-08-03T22:03:15.377Z,24.30
2022-08-03T22:05:44.518Z,24.10
2022-08-03T22:08:14.903Z,24.30
2022-08-03T22:10:43.355Z,24.30
2022-08-03T22:13:10.334Z,24.10
2022-08-03T22:15:37.058Z,24.10
2022-08-03T22:18:03.893Z,24.10
2022-08-03T22:20:30.693Z,24.30
2022-08-03T22:23:00.035Z,24.40
2022-08-03T22:25:29.222Z,24.20
2022-08-03T22:27:56.507Z,24.20
2022-08-03T22:30:23.257Z,24.30
2022-08-03T22:32:50.389Z,24.40
2022-08-03T22:35:17.140Z,24.30
2022-08-03T22:37:43.871Z,24.30
2022-08-03T22:40:11.704Z,24.20
2022-08-03T22:42:39.403Z,24.50
2022-08-03T22:45:06.551Z,24.20
2022-08-03T22:47:37.007Z,24.20
2022-08-03T22:50:32.783Z,24.20
2022-08-03T22:52:59.748Z,24.40
2022-08-03T22:55:26.869Z,24.30
2022-08-03T22:57:55.976Z,24.40
2022-08-03T23:00:23.124Z,24.50
2022-08-03T23:02:50.056Z,24.50
2022-08-03T23:05:59.572Z,24.30
2022-08-03T23:08:04.749Z,24.20
2022-08-03T23:10:31.492Z,24.00
2022-08-03T23:13:00.473Z,24.20
2022-08-03T23:15:29.228Z,23.80
2022-08-03T23:17:58.612Z,23.60
2022-08-03T23:20:26.419Z,23.50
2022-08-03T23:22:54.191Z,23.50
2022-08-03T23:25:22.088Z,23.30
2022-08-03T23:27:49.225Z,23.30
2022-08-03T23:30:33.294Z,23.30
2022-08-03T23:33:00.073Z,23.10
2022-08-03T23:36:29.294Z,23.70
2022-08-03T23:38:34.570Z,23.20
2022-08-03T23:41:05.133Z,23.10
2022-08-03T23:43:50.697Z,23.20
2022-08-03T23:46:19.863Z,22.90
2022-08-03T23:48:46.669Z,22.90
2022-08-03T23:51:14.620Z,23.00
2022-08-03T23:53:41.804Z,23.10
2022-08-03T23:56:17.656Z,22.80
2022-08-03T23:58:58.371Z,22.80
